sensor_id;sensor_type;location;lat;lon;timestamp;pressure;altitude;pressure_sealevel;temperature;humidity
60019;BME280;45870;42.528;26.740;2024-03-02T00:02:00;99427.03;;;12.90;60.91
60019;BME280;45870;42.528;26.740;2024-03-02T00:04:26;99431.53;;;13.65;58.42
60019;BME280;45870;42.528;26.740;2024-03-02T00:06:52;99434.22;;;13.06;60.49
60019;BME280;45870;42.528;26.740;2024-03-02T00:09:19;99434.50;;;12.56;62.42
60019;BME280;45870;42.528;26.740;2024-03-02T00:11:45;99430.75;;;13.37;59.77
60019;BME280;45870;42.528;26.740;2024-03-02T00:14:10;99424.38;;;13.54;59.12
60019;BME280;45870;42.528;26.740;2024-03-02T00:16:36;99429.22;;;12.93;60.97
60019;BME280;45870;42.528;26.740;2024-03-02T00:19:05;99417.31;;;12.94;60.77
60019;BME280;45870;42.528;26.740;2024-03-02T00:21:31;99415.38;;;12.89;60.78
60019;BME280;45870;42.528;26.740;2024-03-02T00:23:57;99421.59;;;13.43;59.10
60019;BME280;45870;42.528;26.740;2024-03-02T00:26:22;99420.34;;;12.97;60.39
60019;BME280;45870;42.528;26.740;2024-03-02T00:28:47;99424.09;;;13.18;59.70
60019;BME280;45870;42.528;26.740;2024-03-02T00:31:15;99419.41;;;12.87;60.53
60019;BME280;45870;42.528;26.740;2024-03-02T00:33:41;99409.84;;;14.17;56.27
60019;BME280;45870;42.528;26.740;2024-03-02T00:36:07;99409.66;;;13.86;57.35
60019;BME280;45870;42.528;26.740;2024-03-02T00:38:33;99415.47;;;14.00;57.21
60019;BME280;45870;42.528;26.740;2024-03-02T00:41:00;99403.75;;;13.52;58.61
60019;BME280;45870;42.528;26.740;2024-03-02T00:45:57;99397.38;;;13.32;58.97
60019;BME280;45870;42.528;26.740;2024-03-02T00:48:22;99404.19;;;13.76;57.75
60019;BME280;45870;42.528;26.740;2024-03-02T00:50:51;99390.31;;;13.68;57.72
60019;BME280;45870;42.528;26.740;2024-03-02T00:53:17;99390.97;;;13.48;58.16
60019;BME280;45870;42.528;26.740;2024-03-02T00:55:44;99385.91;;;14.04;56.33
60019;BME280;45870;42.528;26.740;2024-03-02T00:58:12;99388.34;;;14.05;56.44
60019;BME280;45870;42.528;26.740;2024-03-02T01:00:37;99397.00;;;13.55;57.97
60019;BME280;45870;42.528;26.740;2024-03-02T01:03:03;99388.59;;;13.57;57.96
60019;BME280;45870;42.528;26.740;2024-03-02T01:05:29;99386.47;;;14.93;53.93
60019;BME280;45870;42.528;26.740;2024-03-02T01:07:54;99380.19;;;14.62;54.68
60019;BME280;45870;42.528;26.740;2024-03-02T01:10:19;99380.66;;;14.44;55.01
60019;BME280;45870;42.528;26.740;2024-03-02T01:12:45;99380.69;;;13.92;56.88
60019;BME280;45870;42.528;26.740;2024-03-02T01:15:11;99386.25;;;14.22;55.94
60019;BME280;45870;42.528;26.740;2024-03-02T01:17:36;99387.00;;;13.61;57.73
60019;BME280;45870;42.528;26.740;2024-03-02T01:20:01;99385.13;;;13.66;57.65
60019;BME280;45870;42.528;26.740;2024-03-02T01:22:27;99375.56;;;14.00;56.58
60019;BME280;45870;42.528;26.740;2024-03-02T01:24:52;99366.44;;;14.22;55.80
60019;BME280;45870;42.528;26.740;2024-03-02T01:27:18;99368.00;;;14.02;56.40
60019;BME280;45870;42.528;26.740;2024-03-02T01:29:43;99365.19;;;13.87;56.90
60019;BME280;45870;42.528;26.740;2024-03-02T01:32:09;99357.38;;;14.01;56.12
60019;BME280;45870;42.528;26.740;2024-03-02T01:34:34;99351.53;;;13.67;57.15
60019;BME280;45870;42.528;26.740;2024-03-02T01:37:00;99347.41;;;13.60;57.41
60019;BME280;45870;42.528;26.740;2024-03-02T01:39:25;99351.81;;;13.76;57.26
60019;BME280;45870;42.528;26.740;2024-03-02T01:41:51;99357.97;;;13.19;58.69
60019;BME280;45870;42.528;26.740;2024-03-02T01:44:16;99347.91;;;14.04;56.53
60019;BME280;45870;42.528;26.740;2024-03-02T01:46:42;99358.16;;;14.64;54.47
60019;BME280;45870;42.528;26.740;2024-03-02T01:49:07;99349.53;;;14.05;55.65
60019;BME280;45870;42.528;26.740;2024-03-02T01:51:33;99357.25;;;13.76;57.42
60019;BME280;45870;42.528;26.740;2024-03-02T01:53:59;99352.78;;;14.01;56.12
60019;BME280;45870;42.528;26.740;2024-03-02T01:56:24;99340.47;;;13.84;56.97
60019;BME280;45870;42.528;26.740;2024-03-02T01:58:50;99340.47;;;13.84;56.75
60019;BME280;45870;42.528;26.740;2024-03-02T02:01:15;99347.00;;;14.45;54.64
60019;BME280;45870;42.528;26.740;2024-03-02T02:03:41;99352.19;;;13.94;56.03
60019;BME280;45870;42.528;26.740;2024-03-02T02:06:07;99355.13;;;13.83;56.39
60019;BME280;45870;42.528;26.740;2024-03-02T02:08:33;99353.31;;;13.15;58.80
60019;BME280;45870;42.528;26.740;2024-03-02T02:10:58;99344.38;;;14.08;55.93
60019;BME280;45870;42.528;26.740;2024-03-02T02:13:24;99364.47;;;13.18;58.43
60019;BME280;45870;42.528;26.740;2024-03-02T02:15:49;99361.28;;;12.99;59.03
60019;BME280;45870;42.528;26.740;2024-03-02T02:18:15;99359.31;;;12.90;59.94
60019;BME280;45870;42.528;26.740;2024-03-02T02:20:41;99356.44;;;13.01;59.59
60019;BME280;45870;42.528;26.740;2024-03-02T02:23:06;99359.94;;;13.02;59.18
60019;BME280;45870;42.528;26.740;2024-03-02T02:25:34;99353.88;;;13.54;58.25
60019;BME280;45870;42.528;26.740;2024-03-02T02:28:00;99366.34;;;13.18;58.89
60019;BME280;45870;42.528;26.740;2024-03-02T02:30:26;99365.53;;;13.54;57.76
60019;BME280;45870;42.528;26.740;2024-03-02T02:32:51;99359.06;;;14.07;56.35
60019;BME280;45870;42.528;26.740;2024-03-02T02:35:17;99353.53;;;14.49;55.39
60019;BME280;45870;42.528;26.740;2024-03-02T02:37:43;99349.47;;;14.52;54.53
60019;BME280;45870;42.528;26.740;2024-03-02T02:40:08;99351.09;;;14.58;54.82
60019;BME280;45870;42.528;26.740;2024-03-02T02:42:34;99352.25;;;13.99;55.81
60019;BME280;45870;42.528;26.740;2024-03-02T02:44:59;99362.81;;;13.96;56.42
60019;BME280;45870;42.528;26.740;2024-03-02T02:47:25;99343.50;;;13.40;57.71
60019;BME280;45870;42.528;26.740;2024-03-02T02:49:51;99356.47;;;13.80;57.35
60019;BME280;45870;42.528;26.740;2024-03-02T02:52:16;99358.16;;;13.13;59.15
60019;BME280;45870;42.528;26.740;2024-03-02T02:54:41;99365.34;;;12.43;61.98
60019;BME280;45870;42.528;26.740;2024-03-02T02:57:07;99368.25;;;12.64;61.45
60019;BME280;45870;42.528;26.740;2024-03-02T02:59:32;99367.16;;;13.18;59.53
60019;BME280;45870;42.528;26.740;2024-03-02T03:01:58;99369.06;;;13.18;59.74
60019;BME280;45870;42.528;26.740;2024-03-02T03:04:23;99372.16;;;12.24;62.52
60019;BME280;45870;42.528;26.740;2024-03-02T03:06:48;99381.34;;;12.72;61.16
60019;BME280;45870;42.528;26.740;2024-03-02T03:09:14;99373.88;;;12.84;60.68
60019;BME280;45870;42.528;26.740;2024-03-02T03:11:39;99372.88;;;12.95;60.44
60019;BME280;45870;42.528;26.740;2024-03-02T03:14:05;99383.22;;;13.25;59.67
60019;BME280;45870;42.528;26.740;2024-03-02T03:16:30;99373.63;;;13.12;60.00
60019;BME280;45870;42.528;26.740;2024-03-02T03:18:55;99377.78;;;13.25;59.34
60019;BME280;45870;42.528;26.740;2024-03-02T03:21:21;99371.78;;;13.18;59.87
60019;BME280;45870;42.528;26.740;2024-03-02T03:23:46;99365.72;;;14.41;55.41
60019;BME280;45870;42.528;26.740;2024-03-02T03:26:12;99360.09;;;13.96;57.28
60019;BME280;45870;42.528;26.740;2024-03-02T03:28:37;99354.31;;;14.39;55.51
60019;BME280;45870;42.528;26.740;2024-03-02T03:31:03;99360.00;;;13.81;57.68
60019;BME280;45870;42.528;26.740;2024-03-02T03:33:28;99357.03;;;14.34;55.54
60019;BME280;45870;42.528;26.740;2024-03-02T03:35:54;99368.47;;;13.89;56.97
60019;BME280;45870;42.528;26.740;2024-03-02T03:38:19;99364.50;;;14.07;56.91
60019;BME280;45870;42.528;26.740;2024-03-02T03:40:44;99356.59;;;14.98;53.18
60019;BME280;45870;42.528;26.740;2024-03-02T03:43:10;99356.97;;;16.21;50.03
60019;BME280;45870;42.528;26.740;2024-03-02T03:45:35;99375.34;;;15.75;50.26
60019;BME280;45870;42.528;26.740;2024-03-02T03:48:01;99372.00;;;16.04;49.89
60019;BME280;45870;42.528;26.740;2024-03-02T03:50:27;99366.38;;;14.89;52.95
60019;BME280;45870;42.528;26.740;2024-03-02T03:52:52;99366.88;;;14.56;54.14
60019;BME280;45870;42.528;26.740;2024-03-02T03:55:18;99358.72;;;14.56;54.69
60019;BME280;45870;42.528;26.740;2024-03-02T03:57:43;99366.53;;;14.37;54.48
60019;BME280;45870;42.528;26.740;2024-03-02T04:00:09;99358.78;;;15.21;52.25
60019;BME280;45870;42.528;26.740;2024-03-02T04:02:35;99373.19;;;15.17;52.66
60019;BME280;45870;42.528;26.740;2024-03-02T04:05:01;99363.41;;;14.13;55.37
60019;BME280;45870;42.528;26.740;2024-03-02T04:07:30;99345.88;;;14.36;54.57
60019;BME280;45870;42.528;26.740;2024-03-02T04:09:55;99341.88;;;14.64;54.18
60019;BME280;45870;42.528;26.740;2024-03-02T04:12:21;99344.34;;;14.85;53.47
60019;BME280;45870;42.528;26.740;2024-03-02T04:14:47;99347.63;;;14.00;55.67
60019;BME280;45870;42.528;26.740;2024-03-02T04:17:12;99350.56;;;14.61;54.09
60019;BME280;45870;42.528;26.740;2024-03-02T04:19:38;99338.31;;;13.81;56.58
60019;BME280;45870;42.528;26.740;2024-03-02T04:22:04;99336.69;;;14.42;54.95
60019;BME280;45870;42.528;26.740;2024-03-02T04:24:29;99349.25;;;14.88;54.02
60019;BME280;45870;42.528;26.740;2024-03-02T04:26:55;99354.53;;;13.76;56.27
60019;BME280;45870;42.528;26.740;2024-03-02T04:29:20;99357.03;;;14.49;54.31
60019;BME280;45870;42.528;26.740;2024-03-02T04:31:46;99349.81;;;14.08;55.12
60019;BME280;45870;42.528;26.740;2024-03-02T04:34:12;99355.00;;;13.63;56.51
60019;BME280;45870;42.528;26.740;2024-03-02T04:36:37;99359.84;;;13.50;57.38
60019;BME280;45870;42.528;26.740;2024-03-02T04:39:02;99348.03;;;13.72;56.74
60019;BME280;45870;42.528;26.740;2024-03-02T04:41:28;99357.03;;;13.82;56.39
60019;BME280;45870;42.528;26.740;2024-03-02T04:43:53;99347.28;;;13.86;56.34
60019;BME280;45870;42.528;26.740;2024-03-02T04:46:18;99356.34;;;13.60;57.41
60019;BME280;45870;42.528;26.740;2024-03-02T04:48:44;99363.84;;;13.48;57.15
60019;BME280;45870;42.528;26.740;2024-03-02T04:51:09;99349.41;;;13.06;58.64
60019;BME280;45870;42.528;26.740;2024-03-02T04:53:35;99343.63;;;13.61;57.05
60019;BME280;45870;42.528;26.740;2024-03-02T04:56:01;99349.63;;;13.68;56.78
60019;BME280;45870;42.528;26.740;2024-03-02T04:58:55;99349.06;;;13.66;57.16
60019;BME280;45870;42.528;26.740;2024-03-02T05:01:20;99356.00;;;14.56;55.03
60019;BME280;45870;42.528;26.740;2024-03-02T05:03:46;99354.41;;;15.66;51.51
60019;BME280;45870;42.528;26.740;2024-03-02T05:06:11;99361.44;;;13.46;56.83
60019;BME280;45870;42.528;26.740;2024-03-02T05:08:37;99353.75;;;12.75;59.71
60019;BME280;45870;42.528;26.740;2024-03-02T05:11:02;99346.59;;;12.64;60.04
60019;BME280;45870;42.528;26.740;2024-03-02T05:13:46;99350.50;;;12.78;59.70
60019;BME280;45870;42.528;26.740;2024-03-02T05:16:11;99372.59;;;13.18;58.56
60019;BME280;45870;42.528;26.740;2024-03-02T05:18:37;99373.38;;;13.14;59.03
60019;BME280;45870;42.528;26.740;2024-03-02T05:21:03;99363.50;;;13.76;57.15
60019;BME280;45870;42.528;26.740;2024-03-02T05:23:28;99369.03;;;13.49;57.49
60019;BME280;45870;42.528;26.740;2024-03-02T05:25:54;99353.59;;;13.55;57.39
60019;BME280;45870;42.528;26.740;2024-03-02T05:28:19;99371.09;;;13.37;57.89
60019;BME280;45870;42.528;26.740;2024-03-02T05:30:44;99380.25;;;13.63;57.72
60019;BME280;45870;42.528;26.740;2024-03-02T05:33:10;99375.09;;;14.19;55.42
60019;BME280;45870;42.528;26.740;2024-03-02T05:35:35;99380.81;;;13.70;56.11
60019;BME280;45870;42.528;26.740;2024-03-02T05:38:01;99373.34;;;14.44;54.38
60019;BME280;45870;42.528;26.740;2024-03-02T05:40:26;99385.28;;;14.38;54.16
60019;BME280;45870;42.528;26.740;2024-03-02T05:42:51;99368.50;;;14.62;53.72
60019;BME280;45870;42.528;26.740;2024-03-02T05:45:17;99379.97;;;14.99;52.61
60019;BME280;45870;42.528;26.740;2024-03-02T05:47:43;99377.75;;;14.66;53.31
60019;BME280;45870;42.528;26.740;2024-03-02T05:50:08;99378.81;;;14.60;53.36
60019;BME280;45870;42.528;26.740;2024-03-02T05:52:34;99374.69;;;14.47;54.07
60019;BME280;45870;42.528;26.740;2024-03-02T05:54:59;99376.75;;;13.73;55.63
60019;BME280;45870;42.528;26.740;2024-03-02T05:57:25;99371.84;;;14.22;54.99
60019;BME280;45870;42.528;26.740;2024-03-02T06:00:16;99364.00;;;13.68;56.49
60019;BME280;45870;42.528;26.740;2024-03-02T06:02:42;99362.94;;;14.26;54.73
60019;BME280;45870;42.528;26.740;2024-03-02T06:05:07;99356.41;;;14.32;54.35
60019;BME280;45870;42.528;26.740;2024-03-02T06:07:33;99360.31;;;13.47;56.79
60019;BME280;45870;42.528;26.740;2024-03-02T06:09:58;99364.19;;;13.57;56.95
60019;BME280;45870;42.528;26.740;2024-03-02T06:12:24;99357.09;;;14.60;54.04
60019;BME280;45870;42.528;26.740;2024-03-02T06:14:49;99362.03;;;15.03;52.58
60019;BME280;45870;42.528;26.740;2024-03-02T06:17:15;99357.31;;;14.43;54.47
60019;BME280;45870;42.528;26.740;2024-03-02T06:19:40;99371.06;;;14.21;55.09
60019;BME280;45870;42.528;26.740;2024-03-02T06:22:05;99372.25;;;14.35;54.68
60019;BME280;45870;42.528;26.740;2024-03-02T06:24:31;99380.25;;;14.97;52.92
60019;BME280;45870;42.528;26.740;2024-03-02T06:26:56;99380.00;;;15.09;52.52
60019;BME280;45870;42.528;26.740;2024-03-02T06:29:22;99381.56;;;14.70;54.03
60019;BME280;45870;42.528;26.740;2024-03-02T06:31:47;99380.53;;;14.19;55.02
60019;BME280;45870;42.528;26.740;2024-03-02T06:34:13;99383.47;;;14.79;53.69
60019;BME280;45870;42.528;26.740;2024-03-02T06:36:38;99372.13;;;14.20;54.93
60019;BME280;45870;42.528;26.740;2024-03-02T06:39:05;99373.81;;;14.31;54.86
60019;BME280;45870;42.528;26.740;2024-03-02T06:41:31;99375.78;;;13.89;57.10
60019;BME280;45870;42.528;26.740;2024-03-02T06:43:56;99386.72;;;13.62;56.85
60019;BME280;45870;42.528;26.740;2024-03-02T06:46:25;99357.25;;;14.33;54.99
60019;BME280;45870;42.528;26.740;2024-03-02T06:48:50;99356.06;;;14.04;55.61
60019;BME280;45870;42.528;26.740;2024-03-02T06:51:16;99360.59;;;13.88;56.39
60019;BME280;45870;42.528;26.740;2024-03-02T06:53:41;99361.75;;;15.10;53.27
60019;BME280;45870;42.528;26.740;2024-03-02T06:56:07;99360.69;;;15.00;53.46
60019;BME280;45870;42.528;26.740;2024-03-02T06:58:33;99361.69;;;13.97;55.74
60019;BME280;45870;42.528;26.740;2024-03-02T07:00:58;99355.22;;;14.85;53.97
60019;BME280;45870;42.528;26.740;2024-03-02T07:03:25;99350.81;;;14.49;54.53
60019;BME280;45870;42.528;26.740;2024-03-02T07:05:51;99348.09;;;13.82;56.76
60019;BME280;45870;42.528;26.740;2024-03-02T07:08:16;99352.44;;;13.88;57.13
60019;BME280;45870;42.528;26.740;2024-03-02T07:10:41;99350.06;;;13.96;56.93
60019;BME280;45870;42.528;26.740;2024-03-02T07:13:09;99345.84;;;13.74;56.89
60019;BME280;45870;42.528;26.740;2024-03-02T07:15:35;99346.28;;;14.02;56.14
60019;BME280;45870;42.528;26.740;2024-03-02T07:18:03;99345.41;;;14.74;53.98
60019;BME280;45870;42.528;26.740;2024-03-02T07:20:29;99351.13;;;14.68;54.67
60019;BME280;45870;42.528;26.740;2024-03-02T07:22:54;99351.88;;;14.38;55.41
60019;BME280;45870;42.528;26.740;2024-03-02T07:25:20;99365.88;;;14.20;55.70
60019;BME280;45870;42.528;26.740;2024-03-02T07:27:45;99354.63;;;14.48;54.94
60019;BME280;45870;42.528;26.740;2024-03-02T07:30:13;99353.06;;;15.18;53.55
60019;BME280;45870;42.528;26.740;2024-03-02T07:32:38;99342.84;;;14.27;55.51
60019;BME280;45870;42.528;26.740;2024-03-02T07:35:06;99349.09;;;14.28;55.34
60019;BME280;45870;42.528;26.740;2024-03-02T07:37:31;99348.78;;;14.19;56.38
60019;BME280;45870;42.528;26.740;2024-03-02T07:39:57;99334.41;;;14.24;56.33
60019;BME280;45870;42.528;26.740;2024-03-02T07:42:23;99335.22;;;14.19;56.51
60019;BME280;45870;42.528;26.740;2024-03-02T07:44:48;99349.56;;;13.21;58.80
60019;BME280;45870;42.528;26.740;2024-03-02T07:47:14;99346.28;;;13.56;57.75
60019;BME280;45870;42.528;26.740;2024-03-02T07:49:39;99348.03;;;13.72;58.07
60019;BME280;45870;42.528;26.740;2024-03-02T07:52:05;99339.78;;;13.57;57.89
60019;BME280;45870;42.528;26.740;2024-03-02T07:54:30;99344.31;;;13.09;59.67
60019;BME280;45870;42.528;26.740;2024-03-02T07:56:55;99342.41;;;13.93;56.97
60019;BME280;45870;42.528;26.740;2024-03-02T07:59:21;99354.03;;;13.79;56.92
60019;BME280;45870;42.528;26.740;2024-03-02T08:01:47;99359.06;;;13.60;57.85
60019;BME280;45870;42.528;26.740;2024-03-02T08:04:13;99361.56;;;13.67;57.34
60019;BME280;45870;42.528;26.740;2024-03-02T08:06:39;99358.53;;;14.15;56.51
60019;BME280;45870;42.528;26.740;2024-03-02T08:09:05;99357.13;;;14.08;55.87
60019;BME280;45870;42.528;26.740;2024-03-02T08:11:35;99367.81;;;14.29;55.85
60019;BME280;45870;42.528;26.740;2024-03-02T08:14:00;99357.97;;;15.00;53.89
60019;BME280;45870;42.528;26.740;2024-03-02T08:16:25;99360.88;;;14.64;54.61
60019;BME280;45870;42.528;26.740;2024-03-02T08:18:51;99366.91;;;14.09;56.24
60019;BME280;45870;42.528;26.740;2024-03-02T08:21:17;99372.66;;;14.17;56.26
60019;BME280;45870;42.528;26.740;2024-03-02T08:23:42;99372.13;;;14.20;56.15
60019;BME280;45870;42.528;26.740;2024-03-02T08:26:08;99373.50;;;14.23;55.64
60019;BME280;45870;42.528;26.740;2024-03-02T08:28:34;99378.88;;;13.61;57.23
60019;BME280;45870;42.528;26.740;2024-03-02T08:30:59;99378.81;;;13.56;58.15
60019;BME280;45870;42.528;26.740;2024-03-02T08:33:25;99374.03;;;14.20;56.30
60019;BME280;45870;42.528;26.740;2024-03-02T08:35:50;99370.53;;;14.29;55.74
60019;BME280;45870;42.528;26.740;2024-03-02T08:38:16;99374.13;;;14.40;55.57
60019;BME280;45870;42.528;26.740;2024-03-02T08:40:41;99366.84;;;13.88;56.74
60019;BME280;45870;42.528;26.740;2024-03-02T08:43:06;99377.47;;;14.00;56.87
60019;BME280;45870;42.528;26.740;2024-03-02T08:45:32;99369.88;;;14.79;54.39
60019;BME280;45870;42.528;26.740;2024-03-02T08:47:59;99370.78;;;13.71;56.97
60019;BME280;45870;42.528;26.740;2024-03-02T08:50:24;99371.25;;;14.67;55.28
60019;BME280;45870;42.528;26.740;2024-03-02T08:52:50;99379.72;;;13.66;57.74
60019;BME280;45870;42.528;26.740;2024-03-02T08:55:16;99379.91;;;13.55;57.39
60019;BME280;45870;42.528;26.740;2024-03-02T08:57:41;99379.22;;;14.26;56.17
60019;BME280;45870;42.528;26.740;2024-03-02T09:00:07;99384.56;;;14.06;56.17
60019;BME280;45870;42.528;26.740;2024-03-02T09:02:32;99379.41;;;14.87;54.05
60019;BME280;45870;42.528;26.740;2024-03-02T09:04:58;99376.13;;;14.75;54.10
60019;BME280;45870;42.528;26.740;2024-03-02T09:07:23;99376.91;;;13.98;57.01
60019;BME280;45870;42.528;26.740;2024-03-02T09:09:49;99369.88;;;14.02;56.83
60019;BME280;45870;42.528;26.740;2024-03-02T09:12:14;99371.63;;;13.71;57.57
60019;BME280;45870;42.528;26.740;2024-03-02T09:14:40;99375.28;;;13.50;58.90
60019;BME280;45870;42.528;26.740;2024-03-02T09:17:05;99385.09;;;14.03;57.18
60019;BME280;45870;42.528;26.740;2024-03-02T09:19:31;99378.66;;;13.72;57.23
60019;BME280;45870;42.528;26.740;2024-03-02T09:21:56;99374.69;;;13.90;56.82
60019;BME280;45870;42.528;26.740;2024-03-02T09:24:23;99171.81;;;12.83;55.53
60019;BME280;45870;42.528;26.740;2024-03-02T09:26:49;99360.63;;;14.65;54.62
60019;BME280;45870;42.528;26.740;2024-03-02T09:29:15;99379.16;;;14.98;53.55
60019;BME280;45870;42.528;26.740;2024-03-02T09:31:40;99373.91;;;14.52;54.73
60019;BME280;45870;42.528;26.740;2024-03-02T09:34:06;99378.81;;;14.60;54.55
60019;BME280;45870;42.528;26.740;2024-03-02T09:36:32;99379.44;;;14.97;53.82
60019;BME280;45870;42.528;26.740;2024-03-02T09:38:57;99374.72;;;13.95;55.57
60019;BME280;45870;42.528;26.740;2024-03-02T09:41:23;99373.47;;;14.13;55.38
60019;BME280;45870;42.528;26.740;2024-03-02T09:43:48;99375.56;;;14.63;54.08
60019;BME280;45870;42.528;26.740;2024-03-02T09:46:14;99364.66;;;14.47;54.75
60019;BME280;45870;42.528;26.740;2024-03-02T09:48:40;99371.28;;;14.87;53.65
60019;BME280;45870;42.528;26.740;2024-03-02T09:51:05;99376.97;;;15.31;52.33
60019;BME280;45870;42.528;26.740;2024-03-02T09:53:31;99372.63;;;15.70;51.43
60019;BME280;45870;42.528;26.740;2024-03-02T09:55:58;99360.97;;;15.44;51.95
60019;BME280;45870;42.528;26.740;2024-03-02T09:58:24;99358.50;;;15.48;52.57
60019;BME280;45870;42.528;26.740;2024-03-02T10:00:49;99353.06;;;15.33;52.19
60019;BME280;45870;42.528;26.740;2024-03-02T10:03:14;99352.81;;;15.55;52.71
60019;BME280;45870;42.528;26.740;2024-03-02T10:05:40;99357.94;;;15.71;51.98
60019;BME280;45870;42.528;26.740;2024-03-02T10:08:05;99351.16;;;15.03;53.13
60019;BME280;45870;42.528;26.740;2024-03-02T10:10:35;99353.59;;;15.40;52.28
60019;BME280;45870;42.528;26.740;2024-03-02T10:13:04;99349.25;;;15.39;52.11
60019;BME280;45870;42.528;26.740;2024-03-02T10:15:33;99349.69;;;16.02;50.56
60019;BME280;45870;42.528;26.740;2024-03-02T10:17:59;99352.59;;;16.25;49.02
60019;BME280;45870;42.528;26.740;2024-03-02T10:20:27;99348.19;;;16.83;48.19
60019;BME280;45870;42.528;26.740;2024-03-02T10:23:11;99342.53;;;16.16;49.71
60019;BME280;45870;42.528;26.740;2024-03-02T10:25:37;99352.34;;;16.17;49.17
60019;BME280;45870;42.528;26.740;2024-03-02T10:28:03;99349.41;;;16.03;50.53
60019;BME280;45870;42.528;26.740;2024-03-02T10:30:31;99352.38;;;17.10;48.17
60019;BME280;45870;42.528;26.740;2024-03-02T10:33:02;99344.00;;;16.57;48.98
60019;BME280;45870;42.528;26.740;2024-03-02T10:35:28;99338.53;;;16.03;50.10
60019;BME280;45870;42.528;26.740;2024-03-02T10:37:54;99341.03;;;16.48;49.75
60019;BME280;45870;42.528;26.740;2024-03-02T10:40:22;99336.41;;;15.90;50.89
60019;BME280;45870;42.528;26.740;2024-03-02T10:42:49;99323.84;;;15.99;50.78
60019;BME280;45870;42.528;26.740;2024-03-02T10:45:15;99322.84;;;15.75;51.58
60019;BME280;45870;42.528;26.740;2024-03-02T10:47:42;99326.44;;;15.05;53.31
60019;BME280;45870;42.528;26.740;2024-03-02T10:50:08;99317.19;;;15.51;52.45
60019;BME280;45870;42.528;26.740;2024-03-02T10:52:37;99316.97;;;16.12;50.37
60019;BME280;45870;42.528;26.740;2024-03-02T10:55:04;99311.75;;;15.41;52.06
60019;BME280;45870;42.528;26.740;2024-03-02T10:57:42;99308.69;;;15.63;51.57
60019;BME280;45870;42.528;26.740;2024-03-02T11:00:11;99310.78;;;15.96;50.72
60019;BME280;45870;42.528;26.740;2024-03-02T11:02:41;99312.53;;;16.75;48.59
60019;BME280;45870;42.528;26.740;2024-03-02T11:05:07;99304.22;;;16.07;50.38
60019;BME280;45870;42.528;26.740;2024-03-02T11:07:34;99312.59;;;16.21;49.63
60019;BME280;45870;42.528;26.740;2024-03-02T11:10:01;99311.19;;;16.28;49.53
60019;BME280;45870;42.528;26.740;2024-03-02T11:12:38;99306.69;;;16.53;49.94
60019;BME280;45870;42.528;26.740;2024-03-02T11:15:10;99300.75;;;16.40;49.48
60019;BME280;45870;42.528;26.740;2024-03-02T11:17:38;99300.00;;;16.30;49.58
60019;BME280;45870;42.528;26.740;2024-03-02T11:20:04;99294.69;;;16.54;49.46
60019;BME280;45870;42.528;26.740;2024-03-02T11:22:29;99297.16;;;17.23;46.77
60019;BME280;45870;42.528;26.740;2024-03-02T11:24:55;99295.72;;;17.02;47.00
60019;BME280;45870;42.528;26.740;2024-03-02T11:30:04;99284.59;;;16.10;50.24
60019;BME280;45870;42.528;26.740;2024-03-02T11:32:30;99277.44;;;16.24;49.86
60019;BME280;45870;42.528;26.740;2024-03-02T11:34:55;99265.56;;;16.88;49.74
60019;BME280;45870;42.528;26.740;2024-03-02T11:37:21;99277.84;;;16.46;49.78
60019;BME280;45870;42.528;26.740;2024-03-02T11:39:49;99280.97;;;16.25;49.76
60019;BME280;45870;42.528;26.740;2024-03-02T11:42:14;99287.38;;;17.45;47.65
60019;BME280;45870;42.528;26.740;2024-03-02T11:44:47;99292.69;;;17.03;48.46
60019;BME280;45870;42.528;26.740;2024-03-02T11:47:14;99285.75;;;16.87;47.95
60019;BME280;45870;42.528;26.740;2024-03-02T11:49:40;99286.44;;;16.69;48.37
60019;BME280;45870;42.528;26.740;2024-03-02T11:52:07;99285.97;;;16.95;48.11
60019;BME280;45870;42.528;26.740;2024-03-02T11:54:33;99273.63;;;17.61;47.29
60019;BME280;45870;42.528;26.740;2024-03-02T11:57:02;99276.34;;;17.61;46.48
60019;BME280;45870;42.528;26.740;2024-03-02T11:59:29;99273.78;;;17.17;47.22
60019;BME280;45870;42.528;26.740;2024-03-02T12:01:55;99269.75;;;16.75;48.29
60019;BME280;45870;42.528;26.740;2024-03-02T12:04:23;99272.63;;;16.11;49.61
60019;BME280;45870;42.528;26.740;2024-03-02T12:06:55;99266.69;;;16.82;47.95
60019;BME280;45870;42.528;26.740;2024-03-02T12:09:21;99264.06;;;17.34;46.99
60019;BME280;45870;42.528;26.740;2024-03-02T12:11:47;99256.44;;;17.31;47.21
60019;BME280;45870;42.528;26.740;2024-03-02T12:14:12;99258.16;;;17.22;47.17
60019;BME280;45870;42.528;26.740;2024-03-02T12:16:38;99256.16;;;17.04;47.68
60019;BME280;45870;42.528;26.740;2024-03-02T12:19:05;99258.56;;;16.38;48.95
60019;BME280;45870;42.528;26.740;2024-03-02T12:21:31;99251.06;;;16.92;48.57
60019;BME280;45870;42.528;26.740;2024-03-02T12:23:56;99252.84;;;16.34;49.28
60019;BME280;45870;42.528;26.740;2024-03-02T12:26:22;99252.56;;;17.09;47.97
60019;BME280;45870;42.528;26.740;2024-03-02T12:28:48;99246.34;;;16.74;48.43
60019;BME280;45870;42.528;26.740;2024-03-02T12:31:13;99241.69;;;17.32;46.22
60019;BME280;45870;42.528;26.740;2024-03-02T12:33:40;99239.84;;;18.18;44.46
60019;BME280;45870;42.528;26.740;2024-03-02T12:36:09;99253.22;;;18.38;43.45
60019;BME280;45870;42.528;26.740;2024-03-02T12:38:34;99247.97;;;19.25;41.75
60019;BME280;45870;42.528;26.740;2024-03-02T12:41:00;99246.13;;;17.52;45.82
60019;BME280;45870;42.528;26.740;2024-03-02T12:43:29;99242.28;;;17.53;45.93
60019;BME280;45870;42.528;26.740;2024-03-02T12:45:55;99237.88;;;17.33;46.57
60019;BME280;45870;42.528;26.740;2024-03-02T12:48:21;99238.13;;;17.61;45.93
60019;BME280;45870;42.528;26.740;2024-03-02T12:50:47;99238.25;;;16.93;47.60